Ginga Lion — H3RU — position and weather

sailwx.info

Track history (hours):
 
Tides and Currents Weather Stations Pressure Air Temp Water Temp Dewpoint Dewpoint Depression Visibility Wind Speed Wind Dir Waves Ship Positions

Ginga Lion

Last reported at 2017-Oct-21 23:15 UTC. Time now 2017-Oct-22 10:27 UTC.
Position N 37°46' E 000°03'.

Length 160 m; draft 10.2 m.

Type: Ship (hazmat cat B). MMSI: 354269000.

Date/timePositionNaut miles runAvg speedWind from/ knotsBaromVisibWave heightAir tempDewpointWater temp
2017-Oct-21 23:15N 37°46' E 000°03'414.5
2017-Oct-21 23:01N 37°42' E 000°01'714.6
2017-Oct-21 22:30N 37°36' W 000°03'1414.1
2017-Oct-21 21:33N 37°24' W 000°12'013.5
2017-Oct-21 21:31N 37°24' W 000°12'713.5
2017-Oct-21 21:00N 37°18' W 000°17'1113.8
2017-Oct-21 20:11N 37°13' W 000°29'314.1
2017-Oct-21 20:00N 37°11' W 000°32'714.0
2017-Oct-21 19:30N 37°07' W 000°39'713.9
2017-Oct-21 19:00N 37°04' W 000°47'2113.8
2017-Oct-21 17:30N 36°53' W 001°09'814.0
2017-Oct-21 16:55N 36°48' W 001°17'713.8
2017-Oct-21 16:23N 36°44' W 001°25'18914.3
2017-Oct-21 03:12N 36°00' W 005°13'316.3
2017-Oct-21 03:00N 35°59' W 005°17'815.9
2017-Oct-21 02:30N 35°57' W 005°26'17113.3
2017-Oct-20 13:39N 36°23' W 008°56'214.1
2017-Oct-20 13:30N 36°24' W 008°58'13512.5
2017-Oct-20 02:39N 38°28' W 010°07'1113.0
2017-Oct-20 01:50N 38°38' W 010°11'613.2
2017-Oct-20 01:24N 38°44' W 010°12'1213.2
2017-Oct-20 00:31N 38°55' W 010°11'012.9
2017-Oct-20 00:29N 38°56' W 010°11'612.6
2017-Oct-20 00:00N 39°02' W 010°10'612.9
2017-Oct-19 23:30N 39°08' W 010°08'713.4
2017-Oct-19 22:59N 39°15' W 010°07'57612.6
2017-Oct-18 01:20N 48°26' W 006°15'412.2
2017-Oct-18 01:00N 48°29' W 006°12'712.3
2017-Oct-18 00:25N 48°35' W 006°06'712.7
2017-Oct-17 23:52N 48°41' W 005°60'11312.8
2017-Oct-17 15:02N 49°45' W 003°37'011.4
2017-Oct-17 15:00N 49°45' W 003°37'611.3
2017-Oct-17 14:30N 49°48' W 003°29'611.7
2017-Oct-17 14:00N 49°51' W 003°22'612.6
2017-Oct-17 13:30N 49°54' W 003°13'713.5
2017-Oct-17 13:00N 49°57' W 003°04'714.1
2017-Oct-17 12:30N 49°59' W 002°53'714.7
2017-Oct-17 12:00N 50°01' W 002°42'5713.0
2017-Oct-17 07:37N 50°15' W 001°16'2 9.4
2017-Oct-17 07:22N 50°16' W 001°12'13 8.7
2017-Oct-17 05:50N 50°20' W 000°52'15 9.4
2017-Oct-17 04:14N 50°23' W 000°29'311.2
2017-Oct-17 04:00N 50°24' W 000°25'611.6
2017-Oct-17 03:31N 50°26' W 000°17'612.3
2017-Oct-17 03:00N 50°27' W 000°07'612.8
2017-Oct-17 02:31N 50°29' E 000°02'713.0
2017-Oct-17 02:01N 50°30' E 000°12'713.1
2017-Oct-17 01:31N 50°32' E 000°22'612.8
2017-Oct-17 01:01N 50°34' E 000°32'612.5
2017-Oct-17 00:31N 50°37' E 000°40'612.3
2017-Oct-17 00:01N 50°41' E 000°48'611.9
2017-Oct-16 23:31N 50°44' E 000°56'611.2
2017-Oct-16 23:01N 50°47' E 001°03'510.7
2017-Oct-16 22:30N 50°50' E 001°10'510.1
2017-Oct-16 22:00N 50°54' E 001°16'5 9.7
2017-Oct-16 21:30N 50°57' E 001°21'5 9.3
2017-Oct-16 21:01N 51°01' E 001°26'5 9.5
2017-Oct-16 20:30N 51°04' E 001°31'5 9.9
2017-Oct-16 20:00N 51°08' E 001°37'611.1
2017-Oct-16 19:30N 51°12' E 001°43'612.3
2017-Oct-16 19:01N 51°17' E 001°49'713.2
2017-Oct-16 18:30N 51°22' E 001°54'714.1
2017-Oct-16 18:00N 51°28' E 001°60'714.0
2017-Oct-16 17:30N 51°34' E 002°07'713.6
2017-Oct-16 17:00N 51°39' E 002°15'713.2
2017-Oct-16 16:30N 51°43' E 002°23'3712.0
2017-Oct-16 13:24N 52°04' E 003°13'612.7
2017-Oct-16 12:55N 52°04' E 003°23'512.5
2017-Oct-16 12:30N 52°04' E 003°32'612.5
2017-Oct-16 12:00N 52°03' E 003°42'611.6
2017-Oct-16 11:30N 52°03' E 003°51'4 8.0
2017-Oct-16 11:00N 52°01' E 003°57'510.0
2017-Oct-16 10:30N 51°59' E 004°04'5 9.4
2017-Oct-16 10:00N 51°57' E 004°11'5 9.7
2017-Oct-16 09:30N 51°54' E 004°17'3 5.5
2017-Oct-16 09:00N 51°54' E 004°22'0 0.0
2017-Oct-16 08:29N 51°54' E 004°22'0 0.0
2017-Oct-16 07:59N 51°54' E 004°22'0 0.0
2017-Oct-16 07:29N 51°54' E 004°22'0 0.0
2017-Oct-16 06:47N 51°54' E 004°22'0 0.0
2017-Oct-16 06:20N 51°54' E 004°22'0 0.0
2017-Oct-16 05:53N 51°54' E 004°22'0 0.0
2017-Oct-16 05:29N 51°54' E 004°22'0 0.0
2017-Oct-16 04:56N 51°54' E 004°22'0 0.0
2017-Oct-16 04:29N 51°54' E 004°22'0 0.0
2017-Oct-16 03:56N 51°54' E 004°22'0 0.0
2017-Oct-16 03:20N 51°54' E 004°22'0 0.0
2017-Oct-16 02:50N 51°54' E 004°22'0 0.0
2017-Oct-16 02:23N 51°54' E 004°22'0 0.0
2017-Oct-16 01:59N 51°54' E 004°22'0 0.0
2017-Oct-16 01:26N 51°54' E 004°22'0 0.0
2017-Oct-16 00:53N 51°54' E 004°22'0 0.0
2017-Oct-16 00:29N 51°54' E 004°22'0 0.0
2017-Oct-15 23:56N 51°54' E 004°22'0 0.0
2017-Oct-15 23:29N 51°54' E 004°22'0 0.0
2017-Oct-15 22:59N 51°54' E 004°22'0 0.0
2017-Oct-15 22:29N 51°54' E 004°22'0 0.0
2017-Oct-15 21:59N 51°54' E 004°22'0 0.0
2017-Oct-15 21:26N 51°54' E 004°22'0 0.0
2017-Oct-15 20:59N 51°54' E 004°22'0 0.0
2017-Oct-15 20:23N 51°54' E 004°22'0 0.0
2017-Oct-15 19:59N 51°54' E 004°22'0 0.0
2017-Oct-15 19:29N 51°54' E 004°22'0 0.0
2017-Oct-15 18:59N 51°54' E 004°22'0 0.0
2017-Oct-15 18:29N 51°54' E 004°22'0 0.0
2017-Oct-15 17:35N 51°54' E 004°22'0 0.0
2017-Oct-15 17:17N 51°54' E 004°22'0 0.0
2017-Oct-15 16:56N 51°54' E 004°22'0 0.0
2017-Oct-15 16:29N 51°54' E 004°22'0 0.0
2017-Oct-15 15:59N 51°54' E 004°22'0 0.0
2017-Oct-15 15:29N 51°54' E 004°22'0 0.0
2017-Oct-15 13:41N 51°54' E 004°22'0 0.0
2017-Oct-15 13:17N 51°54' E 004°22'0 0.0
2017-Oct-15 11:41N 51°54' E 004°22'0 0.0
2017-Oct-15 11:17N 51°54' E 004°22'0 0.0
2017-Oct-15 08:11N 51°54' E 004°22'0 0.0
2017-Oct-15 07:59N 51°54' E 004°22'0 0.0
2017-Oct-15 07:26N 51°54' E 004°22'0 0.0
2017-Oct-15 06:59N 51°54' E 004°22'0 0.0
2017-Oct-15 06:08N 51°54' E 004°22'0 0.0
2017-Oct-15 05:41N 51°54' E 004°22'0 0.0
2017-Oct-15 05:17N 51°54' E 004°22'0 0.0
2017-Oct-15 04:56N 51°54' E 004°22'0 0.0
2017-Oct-15 04:20N 51°54' E 004°22'0 0.0
2017-Oct-15 03:50N 51°54' E 004°22'0 0.0
2017-Oct-15 03:23N 51°54' E 004°22'0 0.0
2017-Oct-15 02:59N 51°54' E 004°22'0 0.0
2017-Oct-15 02:26N 51°54' E 004°22'0 0.0
2017-Oct-15 01:59N 51°54' E 004°22'0 0.0
2017-Oct-15 01:26N 51°54' E 004°22'0 0.0
2017-Oct-15 00:59N 51°54' E 004°22'0 0.0
2017-Oct-15 00:29N 51°54' E 004°22'0 0.0
2017-Oct-14 23:41N 51°54' E 004°22'0 0.0
2017-Oct-14 23:29N 51°54' E 004°22'0 0.0
2017-Oct-14 22:56N 51°54' E 004°22'0 0.0
2017-Oct-14 22:26N 51°54' E 004°22'0 0.0
2017-Oct-14 21:59N 51°54' E 004°22'0 0.0
2017-Oct-14 21:30N 51°54' E 004°22'0 1.0
2017-Oct-14 21:00N 51°54' E 004°21'2 3.7
2017-Oct-14 20:30N 51°53' E 004°18'1 0.8
2017-Oct-14 19:47N 51°53' E 004°18'0 0.0
2017-Oct-14 18:41N 51°53' E 004°18'0 0.0
2017-Oct-14 18:29N 51°53' E 004°18'0 0.0
2017-Oct-14 17:50N 51°53' E 004°18'0 0.0
2017-Oct-14 17:29N 51°53' E 004°18'0 0.0
2017-Oct-14 16:53N 51°53' E 004°18'0 0.0
2017-Oct-14 16:26N 51°53' E 004°18'0 0.0
2017-Oct-14 15:53N 51°53' E 004°18'0 0.0
2017-Oct-14 15:17N 51°53' E 004°18'0 0.0
2017-Oct-14 14:50N 51°53' E 004°18'0 0.0
2017-Oct-14 13:44N 51°53' E 004°18'0 0.0
2017-Oct-14 13:20N 51°53' E 004°18'0 0.0
2017-Oct-14 12:59N 51°53' E 004°18'0 0.0
2017-Oct-14 12:20N 51°53' E 004°18'0 0.0
2017-Oct-14 11:59N 51°53' E 004°18'0 0.0
2017-Oct-14 11:17N 51°53' E 004°18'0 0.0
2017-Oct-14 10:47N 51°53' E 004°18'0 0.0
2017-Oct-14 10:23N 51°53' E 004°18'0 0.0
2017-Oct-14 09:56N 51°53' E 004°18'0 0.0
2017-Oct-14 09:23N 51°53' E 004°18'0 0.0
2017-Oct-14 08:59N 51°53' E 004°18'0 0.0
2017-Oct-14 08:17N 51°53' E 004°18'0 0.0
2017-Oct-14 07:59N 51°53' E 004°18'0 0.0
2017-Oct-14 07:29N 51°53' E 004°18'0 0.0
2017-Oct-14 06:56N 51°53' E 004°18'0 0.0
2017-Oct-14 06:26N 51°53' E 004°18'0 0.0
2017-Oct-14 05:56N 51°53' E 004°18'0 0.0
2017-Oct-14 05:29N 51°53' E 004°18'0 0.0
2017-Oct-14 04:56N 51°53' E 004°18'0 0.0
2017-Oct-14 04:26N 51°53' E 004°18'0 0.0
2017-Oct-14 03:56N 51°53' E 004°18'0 0.0
2017-Oct-14 03:29N 51°53' E 004°18'0 0.0
2017-Oct-14 02:59N 51°53' E 004°18'0 0.0
2017-Oct-14 02:29N 51°53' E 004°18'0 0.0
2017-Oct-14 01:53N 51°53' E 004°18'0 0.0
2017-Oct-14 01:29N 51°53' E 004°18'0 0.0
2017-Oct-14 00:56N 51°53' E 004°18'0 0.0
2017-Oct-14 00:29N 51°53' E 004°18'0 0.0
2017-Oct-13 23:59N 51°53' E 004°18'0 0.0
2017-Oct-13 23:29N 51°53' E 004°18'0 0.0
2017-Oct-13 22:59N 51°53' E 004°18'0 0.0
2017-Oct-13 22:08N 51°53' E 004°18'0 0.0
2017-Oct-13 21:56N 51°53' E 004°18'0 0.0
2017-Oct-13 21:29N 51°53' E 004°18'0 0.0
2017-Oct-13 20:44N 51°53' E 004°18'0 0.0
2017-Oct-13 20:29N 51°53' E 004°18'0 0.0
2017-Oct-13 19:53N 51°53' E 004°18'0 0.0
2017-Oct-13 19:26N 51°53' E 004°18'0 0.0
2017-Oct-13 18:50N 51°53' E 004°18'0 0.0
2017-Oct-13 18:20N 51°53' E 004°18'0 0.0
2017-Oct-13 17:56N 51°53' E 004°18'0 0.0
2017-Oct-13 17:14N 51°53' E 004°18'0 0.0
2017-Oct-13 16:59N 51°53' E 004°18'0 0.0
2017-Oct-13 16:26N 51°53' E 004°18'0 0.0
2017-Oct-13 15:56N 51°53' E 004°18'0 0.0
2017-Oct-13 15:23N 51°53' E 004°18'0 0.0
2017-Oct-13 14:59N 51°53' E 004°18'0 0.0
2017-Oct-13 14:29N 51°53' E 004°18'0 0.0
2017-Oct-13 13:41N 51°53' E 004°18'0 0.0
2017-Oct-13 13:26N 51°53' E 004°18'0 0.0
2017-Oct-13 12:56N 51°53' E 004°18'0 0.0
2017-Oct-13 12:29N 51°53' E 004°18'0 0.0
2017-Oct-13 11:53N 51°53' E 004°18'0 0.0
2017-Oct-13 11:29N 51°53' E 004°18'0 0.0
2017-Oct-13 10:59N 51°53' E 004°18'0 0.0
2017-Oct-13 10:29N 51°53' E 004°18'0 0.0
2017-Oct-13 09:56N 51°53' E 004°18'0 0.0
2017-Oct-13 09:29N 51°53' E 004°18'0 0.0
2017-Oct-13 08:35N 51°53' E 004°18'0 0.1
2017-Oct-13 08:29N 51°53' E 004°18'0 0.0
2017-Oct-13 07:44N 51°53' E 004°18'0 0.0
2017-Oct-13 07:23N 51°53' E 004°18'0 0.0
2017-Oct-13 06:56N 51°53' E 004°18'0 0.0
2017-Oct-13 06:23N 51°53' E 004°18'0 0.0
2017-Oct-13 05:47N 51°53' E 004°18'0 0.0
2017-Oct-13 05:29N 51°53' E 004°18'0 0.0
2017-Oct-13 04:59N 51°53' E 004°18'0 0.0
2017-Oct-13 04:23N 51°53' E 004°18'0 0.0
2017-Oct-13 03:59N 51°53' E 004°18'0 0.0
2017-Oct-13 03:29N 51°53' E 004°18'0 0.0
2017-Oct-13 02:59N 51°53' E 004°18'0 0.0
2017-Oct-13 02:26N 51°53' E 004°18'0 0.0
2017-Oct-13 01:59N 51°53' E 004°18'0 0.0
2017-Oct-13 01:29N 51°53' E 004°18'0 0.0
2017-Oct-13 00:59N 51°53' E 004°18'0 0.0
2017-Oct-13 00:26N 51°53' E 004°18'0 0.0
2017-Oct-12 23:56N 51°53' E 004°18'0 0.0
2017-Oct-12 23:23N 51°53' E 004°18'0 0.0
2017-Oct-12 22:56N 51°53' E 004°18'0 0.0
2017-Oct-12 22:23N 51°53' E 004°18'0 0.0
2017-Oct-12 21:59N 51°53' E 004°18'0 0.0
2017-Oct-12 21:26N 51°53' E 004°18'0 0.0
2017-Oct-12 20:59N 51°53' E 004°18'0 0.0
2017-Oct-12 20:29N 51°53' E 004°18'0 0.0
2017-Oct-12 19:53N 51°53' E 004°18'0 0.0
2017-Oct-12 19:29N 51°53' E 004°18'0 0.0
2017-Oct-12 18:56N 51°53' E 004°18'0 0.0
2017-Oct-12 18:17N 51°53' E 004°18'0 0.0
2017-Oct-12 17:56N 51°53' E 004°18'0 0.0
2017-Oct-12 17:26N 51°53' E 004°18'0 0.0
2017-Oct-12 16:59N 51°53' E 004°18'0 0.0
2017-Oct-12 16:02N 51°53' E 004°18'0 0.0
2017-Oct-12 15:53N 51°53' E 004°18'0 0.0
2017-Oct-12 15:29N 51°53' E 004°18'0 0.0
2017-Oct-12 14:59N 51°53' E 004°18'0 0.0
2017-Oct-12 14:29N 51°53' E 004°18'0 0.0
2017-Oct-12 14:00N 51°53' E 004°18'1 2.0
2017-Oct-12 13:30N 51°53' E 004°19'1 1.1
2017-Oct-12 13:00N 51°53' E 004°19'0 0.0
2017-Oct-12 12:27N 51°53' E 004°19'0 0.0
2017-Oct-12 11:54N 51°53' E 004°19'0 0.0
2017-Oct-12 11:09N 51°53' E 004°19'0 0.0
2017-Oct-12 10:54N 51°53' E 004°19'0 0.0
2017-Oct-12 10:09N 51°53' E 004°19'0 0.0
2017-Oct-12 09:45N 51°53' E 004°19'0 0.0
2017-Oct-12 09:27N 51°53' E 004°19'0 0.0
2017-Oct-12 08:45N 51°53' E 004°19'0 0.0
2017-Oct-12 08:21N 51°53' E 004°19'0 0.0
2017-Oct-12 07:57N 51°53' E 004°19'0 0.0
2017-Oct-12 07:21N 51°53' E 004°19'0 0.0
2017-Oct-12 06:09N 51°53' E 004°19'0 0.0
2017-Oct-12 05:45N 51°53' E 004°19'0 0.0
2017-Oct-12 05:09N 51°53' E 004°19'0 0.0
2017-Oct-12 04:57N 51°53' E 004°19'0 0.0
2017-Oct-12 04:21N 51°53' E 004°19'0 0.0
2017-Oct-12 03:57N 51°53' E 004°19'0 0.0
2017-Oct-12 02:33N 51°53' E 004°19'0 0.0
2017-Oct-12 02:27N 51°53' E 004°19'0 0.0
2017-Oct-12 01:57N 51°53' E 004°19'0 0.0
2017-Oct-12 01:30N 51°53' E 004°19'0 0.0
2017-Oct-12 01:00N 51°53' E 004°19'0 0.0
2017-Oct-12 00:30N 51°53' E 004°19'0 0.0
2017-Oct-12 00:00N 51°53' E 004°19'1 1.8
2017-Oct-11 23:30N 51°53' E 004°21'  
Track history (hours):
 
Tides and Currents Weather Stations Pressure Air Temp Water Temp Dewpoint Dewpoint Depression Visibility Wind Speed Wind Dir Waves Ship Positions

Ginga Lion

Last reported at 2017-Oct-21 23:15 UTC. Time now 2017-Oct-22 10:27 UTC.
Position N 37°46' E 000°03'.

Length 160 m; draft 10.2 m.

Type: Ship (hazmat cat B). MMSI: 354269000.

Date/timePositionNaut miles runAvg speedWind from/ knotsBaromVisibWave heightAir tempDewpointWater temp
2017-Oct-21 23:15N 37°46' E 000°03'414.5
2017-Oct-21 23:01N 37°42' E 000°01'714.6
2017-Oct-21 22:30N 37°36' W 000°03'1414.1
2017-Oct-21 21:33N 37°24' W 000°12'013.5
2017-Oct-21 21:31N 37°24' W 000°12'713.5
2017-Oct-21 21:00N 37°18' W 000°17'1113.8
2017-Oct-21 20:11N 37°13' W 000°29'314.1
2017-Oct-21 20:00N 37°11' W 000°32'714.0
2017-Oct-21 19:30N 37°07' W 000°39'713.9
2017-Oct-21 19:00N 37°04' W 000°47'2113.8
2017-Oct-21 17:30N 36°53' W 001°09'814.0
2017-Oct-21 16:55N 36°48' W 001°17'713.8
2017-Oct-21 16:23N 36°44' W 001°25'18914.3
2017-Oct-21 03:12N 36°00' W 005°13'316.3
2017-Oct-21 03:00N 35°59' W 005°17'815.9
2017-Oct-21 02:30N 35°57' W 005°26'17113.3
2017-Oct-20 13:39N 36°23' W 008°56'214.1
2017-Oct-20 13:30N 36°24' W 008°58'13512.5
2017-Oct-20 02:39N 38°28' W 010°07'1113.0
2017-Oct-20 01:50N 38°38' W 010°11'613.2
2017-Oct-20 01:24N 38°44' W 010°12'1213.2
2017-Oct-20 00:31N 38°55' W 010°11'012.9
2017-Oct-20 00:29N 38°56' W 010°11'612.6
2017-Oct-20 00:00N 39°02' W 010°10'612.9
2017-Oct-19 23:30N 39°08' W 010°08'713.4
2017-Oct-19 22:59N 39°15' W 010°07'57612.6
2017-Oct-18 01:20N 48°26' W 006°15'412.2
2017-Oct-18 01:00N 48°29' W 006°12'712.3
2017-Oct-18 00:25N 48°35' W 006°06'712.7
2017-Oct-17 23:52N 48°41' W 005°60'11312.8
2017-Oct-17 15:02N 49°45' W 003°37'011.4
2017-Oct-17 15:00N 49°45' W 003°37'611.3
2017-Oct-17 14:30N 49°48' W 003°29'611.7
2017-Oct-17 14:00N 49°51' W 003°22'612.6
2017-Oct-17 13:30N 49°54' W 003°13'713.5
2017-Oct-17 13:00N 49°57' W 003°04'714.1
2017-Oct-17 12:30N 49°59' W 002°53'714.7
2017-Oct-17 12:00N 50°01' W 002°42'5713.0
2017-Oct-17 07:37N 50°15' W 001°16'2 9.4
2017-Oct-17 07:22N 50°16' W 001°12'13 8.7
2017-Oct-17 05:50N 50°20' W 000°52'15 9.4
2017-Oct-17 04:14N 50°23' W 000°29'311.2
2017-Oct-17 04:00N 50°24' W 000°25'611.6
2017-Oct-17 03:31N 50°26' W 000°17'612.3
2017-Oct-17 03:00N 50°27' W 000°07'612.8
2017-Oct-17 02:31N 50°29' E 000°02'713.0
2017-Oct-17 02:01N 50°30' E 000°12'713.1
2017-Oct-17 01:31N 50°32' E 000°22'612.8
2017-Oct-17 01:01N 50°34' E 000°32'612.5
2017-Oct-17 00:31N 50°37' E 000°40'612.3
2017-Oct-17 00:01N 50°41' E 000°48'611.9
2017-Oct-16 23:31N 50°44' E 000°56'611.2
2017-Oct-16 23:01N 50°47' E 001°03'510.7
2017-Oct-16 22:30N 50°50' E 001°10'510.1
2017-Oct-16 22:00N 50°54' E 001°16'5 9.7
2017-Oct-16 21:30N 50°57' E 001°21'5 9.3
2017-Oct-16 21:01N 51°01' E 001°26'5 9.5
2017-Oct-16 20:30N 51°04' E 001°31'5 9.9
2017-Oct-16 20:00N 51°08' E 001°37'611.1
2017-Oct-16 19:30N 51°12' E 001°43'612.3
2017-Oct-16 19:01N 51°17' E 001°49'713.2
2017-Oct-16 18:30N 51°22' E 001°54'714.1
2017-Oct-16 18:00N 51°28' E 001°60'714.0
2017-Oct-16 17:30N 51°34' E 002°07'713.6
2017-Oct-16 17:00N 51°39' E 002°15'713.2
2017-Oct-16 16:30N 51°43' E 002°23'3712.0
2017-Oct-16 13:24N 52°04' E 003°13'612.7
2017-Oct-16 12:55N 52°04' E 003°23'512.5
2017-Oct-16 12:30N 52°04' E 003°32'612.5
2017-Oct-16 12:00N 52°03' E 003°42'611.6
2017-Oct-16 11:30N 52°03' E 003°51'4 8.0
2017-Oct-16 11:00N 52°01' E 003°57'510.0
2017-Oct-16 10:30N 51°59' E 004°04'5 9.4
2017-Oct-16 10:00N 51°57' E 004°11'5 9.7
2017-Oct-16 09:30N 51°54' E 004°17'3 5.5
2017-Oct-16 09:00N 51°54' E 004°22'0 0.0
2017-Oct-16 08:29N 51°54' E 004°22'0 0.0
2017-Oct-16 07:59N 51°54' E 004°22'0 0.0
2017-Oct-16 07:29N 51°54' E 004°22'0 0.0
2017-Oct-16 06:47N 51°54' E 004°22'0 0.0
2017-Oct-16 06:20N 51°54' E 004°22'0 0.0
2017-Oct-16 05:53N 51°54' E 004°22'0 0.0
2017-Oct-16 05:29N 51°54' E 004°22'0 0.0
2017-Oct-16 04:56N 51°54' E 004°22'0 0.0
2017-Oct-16 04:29N 51°54' E 004°22'0 0.0
2017-Oct-16 03:56N 51°54' E 004°22'0 0.0
2017-Oct-16 03:20N 51°54' E 004°22'0 0.0
2017-Oct-16 02:50N 51°54' E 004°22'0 0.0
2017-Oct-16 02:23N 51°54' E 004°22'0 0.0
2017-Oct-16 01:59N 51°54' E 004°22'0 0.0
2017-Oct-16 01:26N 51°54' E 004°22'0 0.0
2017-Oct-16 00:53N 51°54' E 004°22'0 0.0
2017-Oct-16 00:29N 51°54' E 004°22'0 0.0
2017-Oct-15 23:56N 51°54' E 004°22'0 0.0
2017-Oct-15 23:29N 51°54' E 004°22'0 0.0
2017-Oct-15 22:59N 51°54' E 004°22'0 0.0
2017-Oct-15 22:29N 51°54' E 004°22'0 0.0
2017-Oct-15 21:59N 51°54' E 004°22'0 0.0
2017-Oct-15 21:26N 51°54' E 004°22'0 0.0
2017-Oct-15 20:59N 51°54' E 004°22'0 0.0
2017-Oct-15 20:23N 51°54' E 004°22'0 0.0
2017-Oct-15 19:59N 51°54' E 004°22'0 0.0
2017-Oct-15 19:29N 51°54' E 004°22'0 0.0
2017-Oct-15 18:59N 51°54' E 004°22'0 0.0
2017-Oct-15 18:29N 51°54' E 004°22'0 0.0
2017-Oct-15 17:35N 51°54' E 004°22'0 0.0
2017-Oct-15 17:17N 51°54' E 004°22'0 0.0
2017-Oct-15 16:56N 51°54' E 004°22'0 0.0
2017-Oct-15 16:29N 51°54' E 004°22'0 0.0
2017-Oct-15 15:59N 51°54' E 004°22'0 0.0
2017-Oct-15 15:29N 51°54' E 004°22'0 0.0
2017-Oct-15 13:41N 51°54' E 004°22'0 0.0
2017-Oct-15 13:17N 51°54' E 004°22'0 0.0
2017-Oct-15 11:41N 51°54' E 004°22'0 0.0
2017-Oct-15 11:17N 51°54' E 004°22'0 0.0
2017-Oct-15 08:11N 51°54' E 004°22'0 0.0
2017-Oct-15 07:59N 51°54' E 004°22'0 0.0
2017-Oct-15 07:26N 51°54' E 004°22'0 0.0
2017-Oct-15 06:59N 51°54' E 004°22'0 0.0
2017-Oct-15 06:08N 51°54' E 004°22'0 0.0
2017-Oct-15 05:41N 51°54' E 004°22'0 0.0
2017-Oct-15 05:17N 51°54' E 004°22'0 0.0
2017-Oct-15 04:56N 51°54' E 004°22'0 0.0
2017-Oct-15 04:20N 51°54' E 004°22'0 0.0
2017-Oct-15 03:50N 51°54' E 004°22'0 0.0
2017-Oct-15 03:23N 51°54' E 004°22'0 0.0
2017-Oct-15 02:59N 51°54' E 004°22'0 0.0
2017-Oct-15 02:26N 51°54' E 004°22'0 0.0
2017-Oct-15 01:59N 51°54' E 004°22'0 0.0
2017-Oct-15 01:26N 51°54' E 004°22'0 0.0
2017-Oct-15 00:59N 51°54' E 004°22'0 0.0
2017-Oct-15 00:29N 51°54' E 004°22'0 0.0
2017-Oct-14 23:41N 51°54' E 004°22'0 0.0
2017-Oct-14 23:29N 51°54' E 004°22'0 0.0
2017-Oct-14 22:56N 51°54' E 004°22'0 0.0
2017-Oct-14 22:26N 51°54' E 004°22'0 0.0
2017-Oct-14 21:59N 51°54' E 004°22'0 0.0
2017-Oct-14 21:30N 51°54' E 004°22'0 1.0
2017-Oct-14 21:00N 51°54' E 004°21'2 3.7
2017-Oct-14 20:30N 51°53' E 004°18'1 0.8
2017-Oct-14 19:47N 51°53' E 004°18'0 0.0
2017-Oct-14 18:41N 51°53' E 004°18'0 0.0
2017-Oct-14 18:29N 51°53' E 004°18'0 0.0
2017-Oct-14 17:50N 51°53' E 004°18'0 0.0
2017-Oct-14 17:29N 51°53' E 004°18'0 0.0
2017-Oct-14 16:53N 51°53' E 004°18'0 0.0
2017-Oct-14 16:26N 51°53' E 004°18'0 0.0
2017-Oct-14 15:53N 51°53' E 004°18'0 0.0
2017-Oct-14 15:17N 51°53' E 004°18'0 0.0
2017-Oct-14 14:50N 51°53' E 004°18'0 0.0
2017-Oct-14 13:44N 51°53' E 004°18'0 0.0
2017-Oct-14 13:20N 51°53' E 004°18'0 0.0
2017-Oct-14 12:59N 51°53' E 004°18'0 0.0
2017-Oct-14 12:20N 51°53' E 004°18'0 0.0
2017-Oct-14 11:59N 51°53' E 004°18'0 0.0
2017-Oct-14 11:17N 51°53' E 004°18'0 0.0
2017-Oct-14 10:47N 51°53' E 004°18'0 0.0
2017-Oct-14 10:23N 51°53' E 004°18'0 0.0
2017-Oct-14 09:56N 51°53' E 004°18'0 0.0
2017-Oct-14 09:23N 51°53' E 004°18'0 0.0
2017-Oct-14 08:59N 51°53' E 004°18'0 0.0
2017-Oct-14 08:17N 51°53' E 004°18'0 0.0
2017-Oct-14 07:59N 51°53' E 004°18'0 0.0
2017-Oct-14 07:29N 51°53' E 004°18'0 0.0
2017-Oct-14 06:56N 51°53' E 004°18'0 0.0
2017-Oct-14 06:26N 51°53' E 004°18'0 0.0
2017-Oct-14 05:56N 51°53' E 004°18'0 0.0
2017-Oct-14 05:29N 51°53' E 004°18'0 0.0
2017-Oct-14 04:56N 51°53' E 004°18'0 0.0
2017-Oct-14 04:26N 51°53' E 004°18'0 0.0
2017-Oct-14 03:56N 51°53' E 004°18'0 0.0
2017-Oct-14 03:29N 51°53' E 004°18'0 0.0
2017-Oct-14 02:59N 51°53' E 004°18'0 0.0
2017-Oct-14 02:29N 51°53' E 004°18'0 0.0
2017-Oct-14 01:53N 51°53' E 004°18'0 0.0
2017-Oct-14 01:29N 51°53' E 004°18'0 0.0
2017-Oct-14 00:56N 51°53' E 004°18'0 0.0
2017-Oct-14 00:29N 51°53' E 004°18'0 0.0
2017-Oct-13 23:59N 51°53' E 004°18'0 0.0
2017-Oct-13 23:29N 51°53' E 004°18'0 0.0
2017-Oct-13 22:59N 51°53' E 004°18'0 0.0
2017-Oct-13 22:08N 51°53' E 004°18'0 0.0
2017-Oct-13 21:56N 51°53' E 004°18'0 0.0
2017-Oct-13 21:29N 51°53' E 004°18'0 0.0
2017-Oct-13 20:44N 51°53' E 004°18'0 0.0
2017-Oct-13 20:29N 51°53' E 004°18'0 0.0
2017-Oct-13 19:53N 51°53' E 004°18'0 0.0
2017-Oct-13 19:26N 51°53' E 004°18'0 0.0
2017-Oct-13 18:50N 51°53' E 004°18'0 0.0
2017-Oct-13 18:20N 51°53' E 004°18'0 0.0
2017-Oct-13 17:56N 51°53' E 004°18'0 0.0
2017-Oct-13 17:14N 51°53' E 004°18'0 0.0
2017-Oct-13 16:59N 51°53' E 004°18'0 0.0
2017-Oct-13 16:26N 51°53' E 004°18'0 0.0
2017-Oct-13 15:56N 51°53' E 004°18'0 0.0
2017-Oct-13 15:23N 51°53' E 004°18'0 0.0
2017-Oct-13 14:59N 51°53' E 004°18'0 0.0
2017-Oct-13 14:29N 51°53' E 004°18'0 0.0
2017-Oct-13 13:41N 51°53' E 004°18'0 0.0
2017-Oct-13 13:26N 51°53' E 004°18'0 0.0
2017-Oct-13 12:56N 51°53' E 004°18'0 0.0
2017-Oct-13 12:29N 51°53' E 004°18'0 0.0
2017-Oct-13 11:53N 51°53' E 004°18'0 0.0
2017-Oct-13 11:29N 51°53' E 004°18'0 0.0
2017-Oct-13 10:59N 51°53' E 004°18'0 0.0
2017-Oct-13 10:29N 51°53' E 004°18'0 0.0
2017-Oct-13 09:56N 51°53' E 004°18'0 0.0
2017-Oct-13 09:29N 51°53' E 004°18'0 0.0
2017-Oct-13 08:35N 51°53' E 004°18'0 0.1
2017-Oct-13 08:29N 51°53' E 004°18'0 0.0
2017-Oct-13 07:44N 51°53' E 004°18'0 0.0
2017-Oct-13 07:23N 51°53' E 004°18'0 0.0
2017-Oct-13 06:56N 51°53' E 004°18'0 0.0
2017-Oct-13 06:23N 51°53' E 004°18'0 0.0
2017-Oct-13 05:47N 51°53' E 004°18'0 0.0
2017-Oct-13 05:29N 51°53' E 004°18'0 0.0
2017-Oct-13 04:59N 51°53' E 004°18'0 0.0
2017-Oct-13 04:23N 51°53' E 004°18'0 0.0
2017-Oct-13 03:59N 51°53' E 004°18'0 0.0
2017-Oct-13 03:29N 51°53' E 004°18'0 0.0
2017-Oct-13 02:59N 51°53' E 004°18'0 0.0
2017-Oct-13 02:26N 51°53' E 004°18'0 0.0
2017-Oct-13 01:59N 51°53' E 004°18'0 0.0
2017-Oct-13 01:29N 51°53' E 004°18'0 0.0
2017-Oct-13 00:59N 51°53' E 004°18'0 0.0
2017-Oct-13 00:26N 51°53' E 004°18'0 0.0
2017-Oct-12 23:56N 51°53' E 004°18'0 0.0
2017-Oct-12 23:23N 51°53' E 004°18'0 0.0
2017-Oct-12 22:56N 51°53' E 004°18'0 0.0
2017-Oct-12 22:23N 51°53' E 004°18'0 0.0
2017-Oct-12 21:59N 51°53' E 004°18'0 0.0
2017-Oct-12 21:26N 51°53' E 004°18'0 0.0
2017-Oct-12 20:59N 51°53' E 004°18'0 0.0
2017-Oct-12 20:29N 51°53' E 004°18'0 0.0
2017-Oct-12 19:53N 51°53' E 004°18'0 0.0
2017-Oct-12 19:29N 51°53' E 004°18'0 0.0
2017-Oct-12 18:56N 51°53' E 004°18'0 0.0
2017-Oct-12 18:17N 51°53' E 004°18'0 0.0
2017-Oct-12 17:56N 51°53' E 004°18'0 0.0
2017-Oct-12 17:26N 51°53' E 004°18'0 0.0
2017-Oct-12 16:59N 51°53' E 004°18'0 0.0
2017-Oct-12 16:02N 51°53' E 004°18'0 0.0
2017-Oct-12 15:53N 51°53' E 004°18'0 0.0
2017-Oct-12 15:29N 51°53' E 004°18'0 0.0
2017-Oct-12 14:59N 51°53' E 004°18'0 0.0
2017-Oct-12 14:29N 51°53' E 004°18'0 0.0
2017-Oct-12 14:00N 51°53' E 004°18'1 2.0
2017-Oct-12 13:30N 51°53' E 004°19'1 1.1
2017-Oct-12 13:00N 51°53' E 004°19'0 0.0
2017-Oct-12 12:27N 51°53' E 004°19'0 0.0
2017-Oct-12 11:54N 51°53' E 004°19'0 0.0
2017-Oct-12 11:09N 51°53' E 004°19'0 0.0
2017-Oct-12 10:54N 51°53' E 004°19'0 0.0
2017-Oct-12 10:09N 51°53' E 004°19'0 0.0
2017-Oct-12 09:45N 51°53' E 004°19'0 0.0
2017-Oct-12 09:27N 51°53' E 004°19'0 0.0
2017-Oct-12 08:45N 51°53' E 004°19'0 0.0
2017-Oct-12 08:21N 51°53' E 004°19'0 0.0
2017-Oct-12 07:57N 51°53' E 004°19'0 0.0
2017-Oct-12 07:21N 51°53' E 004°19'0 0.0
2017-Oct-12 06:09N 51°53' E 004°19'0 0.0
2017-Oct-12 05:45N 51°53' E 004°19'0 0.0
2017-Oct-12 05:09N 51°53' E 004°19'0 0.0
2017-Oct-12 04:57N 51°53' E 004°19'0 0.0
2017-Oct-12 04:21N 51°53' E 004°19'0 0.0
2017-Oct-12 03:57N 51°53' E 004°19'0 0.0
2017-Oct-12 02:33N 51°53' E 004°19'0 0.0
2017-Oct-12 02:27N 51°53' E 004°19'0 0.0
2017-Oct-12 01:57N 51°53' E 004°19'0 0.0
2017-Oct-12 01:30N 51°53' E 004°19'0 0.0
2017-Oct-12 01:00N 51°53' E 004°19'0 0.0
2017-Oct-12 00:30N 51°53' E 004°19'0 0.0
2017-Oct-12 00:00N 51°53' E 004°19'1 1.8
2017-Oct-11 23:30N 51°53' E 004°21'  

Dump ship's entire track history